createdAt,value
2018-12-29T00:01:31.536Z,13.70
2018-12-29T00:04:13.770Z,14.63
2018-12-29T00:06:55.408Z,12.13
2018-12-29T00:09:36.018Z,12.87
2018-12-29T00:12:17.263Z,10.50
2018-12-29T00:14:59.442Z,10.37
2018-12-29T00:17:40.467Z,13.37
2018-12-29T00:20:21.714Z,13.60
2018-12-29T00:23:02.966Z,12.10
2018-12-29T00:25:43.692Z,11.30
2018-12-29T00:28:25.121Z,13.17
2018-12-29T00:31:05.740Z,12.97
2018-12-29T00:33:46.539Z,14.20
2018-12-29T00:36:27.531Z,12.47
2018-12-29T00:39:08.394Z,12.10
2018-12-29T00:44:34.589Z,12.60
2018-12-29T00:47:03.518Z,11.37
2018-12-29T00:49:51.671Z,14.00
2018-12-29T00:52:20.578Z,14.50
2018-12-29T00:55:08.767Z,13.27
2018-12-29T00:57:49.369Z,11.77
2018-12-29T01:00:29.895Z,15.10
2018-12-29T01:06:16.901Z,15.80
2018-12-29T01:08:57.519Z,12.93
2018-12-29T01:11:38.351Z,13.70
2018-12-29T01:14:18.914Z,16.17
2018-12-29T01:16:59.420Z,14.83
2018-12-29T01:19:40.239Z,16.90
2018-12-29T01:22:22.737Z,14.17
2018-12-29T01:25:04.899Z,12.30
2018-12-29T01:27:46.240Z,12.80
2018-12-29T01:30:27.129Z,17.13
2018-12-29T01:33:07.929Z,15.43
2018-12-29T01:35:48.587Z,12.67
2018-12-29T01:38:29.741Z,14.40
2018-12-29T01:44:03.637Z,13.23
2018-12-29T01:46:51.749Z,15.83
2018-12-29T01:49:20.644Z,15.43
2018-12-29T01:52:08.795Z,16.83
2018-12-29T01:54:49.842Z,15.33
2018-12-29T01:57:31.361Z,15.53
2018-12-29T02:00:12.750Z,17.77
2018-12-29T02:02:53.287Z,15.77
2018-12-29T02:05:34.284Z,15.43
2018-12-29T02:08:15.085Z,13.53
2018-12-29T02:10:55.550Z,16.13
2018-12-29T02:13:37.954Z,20.37
2018-12-29T02:16:19.194Z,16.13
2018-12-29T02:22:10.677Z,15.23
2018-12-29T02:24:51.523Z,16.47
2018-12-29T02:27:32.334Z,15.23
2018-12-29T02:30:13.444Z,21.17
2018-12-29T02:32:54.632Z,15.23
2018-12-29T02:35:35.344Z,16.50
2018-12-29T02:41:09.515Z,17.80
2018-12-29T02:43:50.309Z,18.43
2018-12-29T02:46:31.044Z,21.37
2018-12-29T02:49:11.924Z,17.60
2018-12-29T02:51:40.856Z,18.70
2018-12-29T02:54:28.980Z,18.27
2018-12-29T03:00:14.459Z,15.77
2018-12-29T03:02:55.492Z,17.57
2018-12-29T03:05:36.779Z,20.43
2018-12-29T03:08:18.215Z,18.57
2018-12-29T03:10:59.367Z,16.17
2018-12-29T03:13:40.888Z,17.00
2018-12-29T03:16:21.784Z,20.60
2018-12-29T03:19:03.206Z,18.60
2018-12-29T03:21:44.777Z,18.63
2018-12-29T03:24:26.064Z,20.77
2018-12-29T03:29:57.884Z,19.47
2018-12-29T03:35:58.189Z,20.43
2018-12-29T03:38:57.975Z,20.00
2018-12-29T03:41:39.012Z,21.30
2018-12-29T03:44:20.386Z,20.33
2018-12-29T03:47:01.845Z,21.87
2018-12-29T03:55:53.736Z,23.03
2018-12-29T03:58:34.499Z,21.13
2018-12-29T04:01:16.040Z,21.97
2018-12-29T04:03:44.950Z,20.07
2018-12-29T04:06:33.050Z,21.50
2018-12-29T04:09:14.440Z,19.80
2018-12-29T04:11:55.414Z,23.20
2018-12-29T04:14:36.158Z,20.40
2018-12-29T04:17:05.007Z,20.37
2018-12-29T04:19:53.159Z,23.93
2018-12-29T04:22:41.289Z,22.10
2018-12-29T04:25:24.198Z,23.23
2018-12-29T04:28:24.453Z,23.50
2018-12-29T04:31:05.624Z,25.67
2018-12-29T04:33:46.262Z,24.60
2018-12-29T04:36:27.435Z,23.93
2018-12-29T04:41:53.038Z,22.40
2018-12-29T04:50:23.203Z,24.93
2018-12-29T04:56:28.530Z,23.77
2018-12-29T05:05:42.486Z,24.10
2018-12-29T05:14:11.987Z,25.67
2018-12-29T05:16:40.863Z,24.13
2018-12-29T05:19:29.064Z,21.57
2018-12-29T05:25:46.129Z,22.37
2018-12-29T05:34:39.539Z,21.97
2018-12-29T05:43:49.412Z,22.80
2018-12-29T05:50:13.372Z,22.30
2018-12-29T05:52:54.490Z,23.97
2018-12-29T05:55:35.418Z,21.27
2018-12-29T06:01:33.270Z,18.77
2018-12-29T06:07:17.879Z,21.57
2018-12-29T06:15:39.093Z,20.97
2018-12-29T06:18:39.365Z,22.87
2018-12-29T06:21:26.230Z,20.63
2018-12-29T06:24:07.146Z,24.67
2018-12-29T06:30:07.709Z,26.40
2018-12-29T06:38:42.713Z,22.57
2018-12-29T06:41:43.298Z,26.50
2018-12-29T06:47:29.926Z,23.30
2018-12-29T06:56:46.088Z,25.53
2018-12-29T06:59:27.239Z,22.83
2018-12-29T07:02:08.212Z,25.43
2018-12-29T07:07:40.780Z,23.33
2018-12-29T07:13:25.195Z,27.77
2018-12-29T07:16:42.182Z,27.67
2018-12-29T07:19:20.290Z,23.97
2018-12-29T07:31:20.832Z,23.10
2018-12-29T07:34:09.002Z,22.80
2018-12-29T07:36:51.010Z,26.20
2018-12-29T07:55:19.485Z,19.80
2018-12-29T08:00:51.763Z,20.10
2018-12-29T08:16:05.529Z,18.73
2018-12-29T08:21:38.228Z,17.47
2018-12-29T08:30:45.094Z,18.33
2018-12-29T08:33:26.327Z,17.03
2018-12-29T08:39:30.687Z,18.50
2018-12-29T08:51:00.165Z,19.93
2018-12-29T08:57:11.730Z,21.23
2018-12-29T08:59:52.895Z,20.60
2018-12-29T09:02:33.879Z,18.40
2018-12-29T09:05:15.616Z,21.00
2018-12-29T09:13:47.982Z,21.80
2018-12-29T09:16:29.122Z,18.70
2018-12-29T09:19:10.909Z,17.80
2018-12-29T09:27:27.958Z,18.17
2018-12-29T09:30:09.169Z,18.67
2018-12-29T09:32:50.128Z,19.83
2018-12-29T09:38:24.703Z,21.20
2018-12-29T09:41:12.866Z,19.43
2018-12-29T09:43:53.589Z,17.60
2018-12-29T09:46:35.468Z,20.70
2018-12-29T09:49:16.795Z,18.90
2018-12-29T09:51:57.980Z,18.67
2018-12-29T09:54:39.044Z,15.80
2018-12-29T09:57:42.548Z,17.70
2018-12-29T10:00:24.902Z,16.33
2018-12-29T10:03:16.397Z,18.37
2018-12-29T10:06:06.555Z,19.20
2018-12-29T10:09:06.368Z,19.50
2018-12-29T10:14:21.492Z,18.57
2018-12-29T10:20:27.734Z,18.27
2018-12-29T10:32:09.603Z,13.97
2018-12-29T10:34:50.904Z,16.77
2018-12-29T10:37:33.027Z,16.37
2018-12-29T10:42:58.011Z,14.23
2018-12-29T10:45:38.960Z,16.33
2018-12-29T10:48:38.541Z,14.50
2018-12-29T10:54:25.869Z,14.33
2018-12-29T10:57:26.045Z,16.87
2018-12-29T11:00:07.097Z,14.87
2018-12-29T11:02:47.954Z,14.73
2018-12-29T11:05:28.936Z,15.03
2018-12-29T11:08:09.719Z,17.00
2018-12-29T11:10:50.283Z,15.43
2018-12-29T11:19:31.096Z,13.27
2018-12-29T11:22:15.628Z,15.87
2018-12-29T11:27:44.786Z,13.57
2018-12-29T11:30:26.162Z,17.90
2018-12-29T11:33:07.294Z,16.53
2018-12-29T11:35:49.685Z,16.70
2018-12-29T11:38:39.181Z,17.50
2018-12-29T11:41:21.780Z,13.80
2018-12-29T11:44:02.809Z,20.60
2018-12-29T11:46:43.515Z,17.33
2018-12-29T11:49:24.291Z,17.43
2018-12-29T11:52:08.429Z,18.93
2018-12-29T11:54:53.851Z,16.73
2018-12-29T11:57:35.042Z,19.63
2018-12-29T12:06:10.064Z,20.03
2018-12-29T12:14:30.313Z,20.33
2018-12-29T12:17:11.646Z,27.33
2018-12-29T12:19:53.008Z,22.47
2018-12-29T12:22:34.047Z,22.73
2018-12-29T12:25:42.806Z,23.90
2018-12-29T12:28:06.575Z,21.10
2018-12-29T12:34:05.161Z,24.47
2018-12-29T12:37:05.535Z,21.50
2018-12-29T12:39:46.837Z,23.63
2018-12-29T12:42:27.851Z,24.03
2018-12-29T12:45:09.621Z,23.63
2018-12-29T12:48:09.698Z,23.40
2018-12-29T12:50:51.159Z,20.63
2018-12-29T12:53:32.333Z,22.37
2018-12-29T12:56:01.240Z,24.47
2018-12-29T12:58:49.566Z,24.83
2018-12-29T13:01:39.405Z,23.73
2018-12-29T13:04:20.480Z,24.00
2018-12-29T13:07:01.110Z,25.73
2018-12-29T13:09:42.315Z,24.73
2018-12-29T13:15:31.239Z,20.87
2018-12-29T13:18:13.053Z,27.67
2018-12-29T13:20:54.764Z,23.33
2018-12-29T13:23:35.414Z,24.10
2018-12-29T13:26:04.720Z,26.80
2018-12-29T13:28:53.707Z,20.23
2018-12-29T13:31:36.023Z,24.20
2018-12-29T13:34:17.123Z,24.33
2018-12-29T13:36:58.494Z,25.10
2018-12-29T13:39:39.086Z,25.83
2018-12-29T13:42:20.495Z,27.30
2018-12-29T13:50:52.763Z,24.17
2018-12-29T13:53:33.723Z,24.30
2018-12-29T13:56:17.523Z,23.33
2018-12-29T13:58:58.475Z,25.77
2018-12-29T14:01:39.571Z,25.67
2018-12-29T14:07:05.395Z,25.83
2018-12-29T14:15:56.150Z,28.17
2018-12-29T14:18:28.373Z,28.37
2018-12-29T14:21:14.889Z,32.37
2018-12-29T14:23:55.919Z,30.27
2018-12-29T14:26:24.858Z,26.37
2018-12-29T14:29:13.050Z,27.80
2018-12-29T14:32:01.208Z,31.03
2018-12-29T14:37:26.607Z,25.93
2018-12-29T14:40:07.613Z,30.93
2018-12-29T14:46:06.584Z,25.47
2018-12-29T14:49:07.042Z,25.53
2018-12-29T14:51:51.742Z,26.57
2018-12-29T15:00:46.408Z,27.23
2018-12-29T15:06:20.852Z,25.97
2018-12-29T15:08:49.713Z,28.07
2018-12-29T15:11:37.886Z,29.90
2018-12-29T15:14:26.051Z,26.83
2018-12-29T15:17:14.213Z,28.80
2018-12-29T15:23:33.454Z,26.27
2018-12-29T15:26:15.584Z,27.23
2018-12-29T15:28:56.530Z,27.70
2018-12-29T15:31:25.391Z,33.10
2018-12-29T15:34:13.568Z,29.20
2018-12-29T15:36:54.787Z,27.93
2018-12-29T15:39:35.673Z,31.97
2018-12-29T15:42:16.534Z,29.10
2018-12-29T15:44:45.453Z,30.13
2018-12-29T15:47:33.560Z,29.93
2018-12-29T15:50:14.736Z,28.90
2018-12-29T15:55:40.065Z,27.20
2018-12-29T15:58:21.738Z,28.30
2018-12-29T16:01:02.565Z,25.23
2018-12-29T16:03:43.354Z,29.60
2018-12-29T16:06:24.543Z,29.07
2018-12-29T16:12:10.463Z,25.60
2018-12-29T16:14:51.862Z,25.37
2018-12-29T16:17:20.844Z,26.57
2018-12-29T16:20:10.669Z,21.20
2018-12-29T16:25:35.303Z,23.77
2018-12-29T16:28:16.288Z,20.53
2018-12-29T16:30:45.255Z,21.70
2018-12-29T16:33:33.452Z,22.60
2018-12-29T16:36:22.038Z,23.10
2018-12-29T16:39:10.202Z,21.17
2018-12-29T16:50:09.929Z,18.97
2018-12-29T16:52:50.984Z,19.57
2018-12-29T16:55:31.919Z,18.27
2018-12-29T16:58:01.145Z,19.37
2018-12-29T17:01:26.391Z,17.07
2018-12-29T17:04:08.367Z,18.07
2018-12-29T17:09:33.836Z,18.00
2018-12-29T17:12:15.384Z,16.30
2018-12-29T17:21:29.299Z,16.30
2018-12-29T17:27:22.000Z,15.27
2018-12-29T17:30:03.153Z,13.53
2018-12-29T17:38:59.383Z,13.43
2018-12-29T17:44:31.703Z,10.97
2018-12-29T17:49:45.125Z,11.50
2018-12-29T17:55:21.893Z,11.23
2018-12-29T18:04:23.802Z,9.67
2018-12-29T18:09:48.539Z,10.90
2018-12-29T18:15:32.703Z,11.67
2018-12-29T18:18:33.193Z,12.57
2018-12-29T18:27:34.918Z,12.60
2018-12-29T18:33:00.374Z,11.37
2018-12-29T18:35:41.378Z,12.30
2018-12-29T18:41:33.596Z,12.23
2018-12-29T18:44:15.127Z,11.50
2018-12-29T18:46:55.887Z,10.50
2018-12-29T18:49:25.116Z,12.17
2018-12-29T18:52:13.246Z,12.60
2018-12-29T18:54:54.445Z,13.77
2018-12-29T19:00:51.921Z,10.47
2018-12-29T19:03:21.218Z,11.97
2018-12-29T19:06:09.422Z,12.20
2018-12-29T19:08:57.725Z,10.43
2018-12-29T19:11:38.623Z,13.80
2018-12-29T19:26:06.471Z,11.50
2018-12-29T19:35:16.002Z,12.17
2018-12-29T19:41:21.552Z,13.80
2018-12-29T19:46:46.871Z,9.70
2018-12-29T19:55:55.154Z,12.73
2018-12-29T20:01:55.522Z,11.63
2018-12-29T20:07:58.934Z,12.93
2018-12-29T20:10:40.022Z,13.40
2018-12-29T20:16:26.162Z,10.23
2018-12-29T20:19:06.850Z,14.57
2018-12-29T20:25:11.277Z,11.17
2018-12-29T20:31:05.354Z,11.77
2018-12-29T20:36:37.847Z,13.27
2018-12-29T20:39:18.651Z,11.60
2018-12-29T20:48:01.049Z,14.53
2018-12-29T20:53:21.459Z,9.73
2018-12-29T20:56:09.665Z,18.43
2018-12-29T20:58:57.854Z,10.87
2018-12-29T21:01:26.757Z,19.73
2018-12-29T21:07:51.233Z,9.77
2018-12-29T21:10:32.355Z,10.47
2018-12-29T21:13:01.265Z,9.73
2018-12-29T21:15:49.427Z,9.10
2018-12-29T21:18:30.706Z,9.17
2018-12-29T21:21:11.645Z,9.80
2018-12-29T21:23:52.660Z,8.17
2018-12-29T21:26:21.523Z,8.90
2018-12-29T21:29:09.701Z,12.87
2018-12-29T21:31:50.442Z,10.57
2018-12-29T21:34:31.294Z,7.33
2018-12-29T21:37:13.287Z,7.80
2018-12-29T21:46:13.362Z,8.70
2018-12-29T21:48:54.559Z,6.97
2018-12-29T21:57:32.966Z,9.23
2018-12-29T22:00:14.342Z,5.77
2018-12-29T22:02:56.454Z,6.77
2018-12-29T22:05:37.796Z,7.70
2018-12-29T22:11:22.941Z,5.70
2018-12-29T22:17:13.962Z,5.57
2018-12-29T22:19:54.882Z,5.67
2018-12-29T22:25:21.784Z,5.57
2018-12-29T22:28:21.724Z,5.77
2018-12-29T22:34:12.902Z,5.07
2018-12-29T22:36:53.878Z,5.80
2018-12-29T22:42:21.034Z,6.13
2018-12-29T22:45:02.086Z,5.63
2018-12-29T22:47:43.135Z,7.30
2018-12-29T22:50:27.173Z,5.93
2018-12-29T22:53:08.301Z,6.00
2018-12-29T22:55:49.079Z,7.20
2018-12-29T23:04:29.245Z,9.83
2018-12-29T23:07:10.455Z,7.60
2018-12-29T23:15:59.526Z,9.20
2018-12-29T23:21:24.918Z,8.90
2018-12-29T23:27:39.731Z,8.13
2018-12-29T23:30:21.075Z,8.37
2018-12-29T23:33:05.145Z,8.67
2018-12-29T23:38:31.554Z,7.73
2018-12-29T23:41:00.374Z,6.50
2018-12-29T23:47:27.003Z,9.07
2018-12-29T23:50:11.477Z,6.97
2018-12-29T23:52:53.010Z,8.03
2018-12-29T23:55:34.408Z,11.70
2018-12-29T23:58:18.762Z,12.37
